Timeline UpdatesTrip UpdatesNews PostsPvt Posts♥♥Travel TipsAdmin PostsConv PostsFollowed PostsChat RequestsBlog PostsPNR Posts

Disclaimer
Search
 
 
Sun Nov 23, 2014 12:57:45 ISTHomeTrainsΣChainsAtlasPNRForumGalleryNewsFAQTripsMembersLoginFeedback
No Recent News for this Train
Other Trains in the News **new
Latest...
.
Tue Apr 15, 2014 (11:20PM)
⇐ Return Journey: Train# 16572

16571/Yesvantpur - Bidar Express

NO Time-Table Change.
Nov 09 (6:52PM)
Change Departure Station:
Change Arrival Station:
Post a Train Travel TipPost a Train Travel Tip **new
Post a Comment/Question/Picture/VideoPost a Comment/Question/Picture/Video
Inaugural Run
Tue Sep 03, 2013
Pantry/Catering
✕ NO Pantry Car
✓ Catering Avbl
Loco/Rake Reversals
VKB/Vikarabad Junction (3);
RSA - Rake Sharing
Rake/Coach Composition
LOCO-SLR-GS1-GS2-GS3-HB1-A1-B1-S1-S2-S3-S4-S5-GS4-GS5-GS6-SLR.
Loco
KJM WDM 3A/WDG-3A
News    PNR    Forum    Time-Table    Availability    Fare Chart    Map    Arr/Dep History    Trips    Gallery    ΣChains    X/O    Timeline    
Travel Time: 14h 15m    16 halts    Distance: 708 km    Avg Speed: 49 km/hr
Type: Mail/Express
Zone: SWR/South Western
Departs @ 19:15 (Avg 2m late)
Platform# ???
S T T  
Yesvantpur Junction/YPR 
Arrives @ 09:30 +1 night (Avg 13m late)
Platform# ???
 M W F 
Bidar/BIDR 

16 halts. 78 intermediate Stations between Yesvantpur Junction and Bidar

Hide intermediate Stations  

#TrkCodeStation NameX/OArrivesAvgDepartsAvgHaltPFDay#KmSpeedElevZoneAddress
1%==%YPRYesvantpur Junction (6)»  -19:15+2--10.041919mSWRBengaluru 560022, Karnataka
1.1%==%LOGHLottegollahalli (2)  19:21-19:21-  14.4 41908mSWRBengaluru-94, Karnataka
1.2%==%KDGHKodigehalli (2)  19:25-19:25-  16.9 41914mSWRBangalore, Karnataka
2%=-%YNKYelahanka Junction (4)  19:33+619:35+82m2112.372911mSWRBengaluru-560064, Karnataka
2.1%--%RNNRajanukunte (2)  19:42-19:42-  121.0 72915mSWRDoddaballapur Rd, Karnataka
2.2%--%DBUDodballapur (4)X  19:52-19:52-  133.0 72896mSWRDoddaballapur, Karnataka
2.3%--%ORHOddarahalli (1)  19:58-19:58-  140.4 72904mSWROddarahalli, Karnataka
2.4%--%MKLMakalidurga (1)  20:07-20:07-  150.7 72833mSWRMakalidurga, Karnataka
2.5%--%TDVThondebhavi (1)  20:14-20:14-  159.7 72755mSWRTondebavi, Karnataka
2.6%--%SMWASomeshwara (2)  20:20-20:20-  166.6 72716mSWRState Highway 9, Karnataka
3%--%GBDGauribidanur (3)  20:25+2920:26+311m1172.540684mSWRChikkaballapur Dist., Karnataka
3.1%--%VWAViduraswattha (1)  20:35-20:35-  178.6 40678mSWRState Highway 9, Karnataka
3.2%--%DPEDevarapalle (2)  20:45-20:45-  185.2 40674mSWRState Highway 9, Andhra Pradesh
4%--%HUPHindupur (4)  21:01+1221:02+131m--195.851636mSWRHindupur, Andhra Pradesh
4.1%--%MLUMalugur (2)  21:14-21:14-  1106.3 51629mSWRHindupur, Andhra Pradesh
4.2%--%CPLChakarlapalli (1)  21:29-21:29-  1119.1 51635mSWRAnantpur, Andhra Pradesh
4.3%--%REPIRangepalli (2)X  21:31-21:31-  1120.7 51629mSWRAnantapur Dist., Andhra Pradesh
4.4%--%PKDPenukonda Junction (2)  21:46-21:46-  1133.4 51548mSWRNH 7 Anantapur District, Andhra Pradesh
4.5%--%MKJMakkajipalli (1)  22:00-22:00-  1145.4 51491mSWRGutturu, Andhra Pradesh
4.6%--%NGMNagasamudram (1)  22:18-22:18-  1160.4 51423mSWRRayalaseema Region, Andhra Pradesh
5%--%DMMDharmavaram Junction (5)X  22:35+522:37+162m--1175.256371mSCRDharmavaram, Andhra Pradesh
5.1%--%CCAChigicherla (2)  22:49-22:49-  1186.6 56375mSCRChennai - Anantpur Rd, Andhra Pradesh
5.2%--%ZPLZangalapalle (2)  22:59-22:59-  1195.9 56372mSCRChennai - Anantpur Rd, Andhra Pradesh
5.3%--%PSPYPrasannayana Palli (1)X  23:09-23:09-  1205.1 56360mSCRAnantapur, Andhra Pradesh
5.4%--%ATPAnantapur (2)  23:13-23:13-  1208.6 56349mSCRAnantapur, Andhra Pradesh
5.5%--%TACTaticherla (1)  23:20-23:20-  1216.0 56343mSCRAnantapur, Andhra Pradesh
5.6%--%GDEGarladinne (2)X  23:30-23:30-  1225.0 56338mSCRGarladinne, Andhra Pradesh
5.7%--|KLUKalluru Junction (3)  23:42-23:42-  1236.1 56312mSCRAnantapur District, Andhra Pradesh
5.8|--|KDTKhadarpet  23:50-23:50-  1244.0 56340mSCRNational Highway 63, Andhra Pradesh
5.9|--|VPLVenkatampalli  00:02-00:02-  2255.2 56403mSCRNational Highway 63, Andhra Pradesh
5.10|--|GPUGullapalyamuX  00:13-00:13-  2265.5 56477mSCRNational Highway 63, Andhra Pradesh
5.11|--|HNMNHanuman Circle (1)  00:21-00:21-  2273.3 56458mSCRGuntakal, Andhra Pradesh
6|--|GTLGuntakal Junction (6)  00:25+2200:30+255m--2276.672453mSCRGuntakal. Tel: 08552-227131/32, Andhra Pradesh
6.1%==%NLANancherla (2)  00:38-00:38-  2285.9 72477mSCRAlur, Andhra Pradesh
6.2%==%NMLUNemakalluX  00:42-00:42-  2291.3 72467mSCRNH 67, Andhra Pradesh
6.3%==%MGVMolagavalli (2)  00:47-00:47-  2297.2 72470mSCRPeddahoturu, Andhra Pradesh
6.4%==%ASPAspari (2)X  00:57-00:57-  2308.4 72460mSCRChinnahoturu, Andhra Pradesh
6.5%==%NRRNagarur (2)  01:06-01:06-  2319.1 72427mSCRKurnool, Andhra Pradesh
6.6%==%ADAdoni (4)X  01:13-01:13-  2328.6 72420mSCRAdoni Tel: 08512-252368, Andhra Pradesh
6.7%==%ESVIsivi (2)  01:19-01:19-  2335.1 72418mSCRadoni, Andhra Pradesh
6.8%==%KGLKupgal (2)X  01:26-01:26-  2343.0 72417mSCRKurnool Dist., Andhra Pradesh
6.9%==%KOKosigi (2)X  01:37-01:37-  2356.7 72379mSCRKurnool Dist., Andhra Pradesh
6.10%==%EGUIranagallu  01:42-01:42-  2362.4 72358mSCRDevarabetta-518349, Andhra Pradesh
7%==%MALMMantralayam Road (3)X  01:48+3601:50+432m--2369.961335mSCRKurnool Tel: 08512-259830, Andhra Pradesh
7.1%==%HPHHanumapura  01:53-01:53-  2372.6 61344mSCRState Highway 61, Karnataka
7.2%==%MTUMatmari  02:01-02:01-  2381.0 61371mSCRRaichur, Karnataka
7.3%==%MRCMarichethalX  02:08-02:08-  2388.4 61380mSCRState Highway 13, Karnataka
8%==%RCRaichur Junction (3)  02:18+4102:20+412m--2398.372406mSCRRaichur, Karnataka
8.1%==%YSYermaras  02:27-02:27-  2407.1 72380mSCRState Highway 13, Karnataka
8.2%==%CKChiksugar (2)  02:34-02:34-  2414.6 72363mSCRChiksugar, Karnataka
8.3%==%YDLPYadalapur (2)  02:39-02:39-  2420.6 72351mSCRRaichur Dist, Karnataka
8.4%==%KSNKrishna (2)  02:41-02:41-  2423.5 72352mSCRDist Mahabubnagar, Telangana
8.5%==%CGTAChegunta (2)  02:49-02:49-  2432.7 72373mSCRMahabubnagar Dist., Telangana
9%==%SADPSaidapur (3)X  02:58+5303:00+522m--2443.746377mSCRYadgir Dist., Karnataka
9.1%==%LGRELingiri (2)  03:17-03:17-  2456.4 46374mSCR585202, Karnataka
10%==%YGYadgir (3)X  03:30+4703:32+462m--2466.840369mSCRYadgir, Karnataka
10.1%==%TGDEThangundiO  03:46-03:46-  2476.2 40383mSCRThangundi, Karnataka
10.2%==%SPHLShampurhalli  03:59-03:59-  2485.2 40415mSCRShampurhalli, Karnataka
11%==%NWNalwar (2)  04:10+1:0904:12+1:092m--2492.225406mSCRGulbarga, Karnataka
11.1%==/HLTSHalkatta Shareef (2)  04:42-04:42-  2504.7 25427mSCRWadi, Karnataka
12/==/CTChittapur (3)  05:17+3305:18+371m--2519.097427mSCRChitapur, Karnataka
13/==/MQRMalkhaid Road (2)  05:24+5205:25+521m--2528.681431mSCRMalkhaid Road, Karnataka
14/==/SEMSedam (3)  05:34+1:0105:35+1:021m--2540.743420mSCRSedam ph.no 08441 276066, Karnataka
14.1/==/KQTKurgunta (2)  05:47-05:47-  2549.1 43421mSCRGulbarga, Karnataka
14.2/==/NAWNawandgi (2)  05:57-05:57-  2556.7 43437mSCRTandur, Telangana
14.3/==/MVHMantatti (2)  06:10-06:10-  2565.6 43443mSCRMantatte Tandur, Telangana
15/==/TDUTandur (3)06:22+3406:23+351m--2574.339457mSCRTandur, Telangana
15.1/==/RMYRukmapur (2)  06:39-06:39-  2585.1 39465mSCRRangareddy Dist, Telangana
15.2/==/DRRDharur06:54-06:54-  2594.4 39513mSCRRangareddy District, Telangana
15.3/==/MWYMailaram (2)  07:03-07:03-  2600.5 39547mSCRRangareddy District, Telangana
15.4/==/GDQGodamgura (2)  07:13-07:13-  2607.3 39590mSCRRangareddy Dist., Telangana
16/==/VKBVikarabad Junction (3)X07:27+3207:32+385m--2616.350633mSCRRangareddy Dist., Telangana
16.1|--|GVPGate VanampalliX  07:50-07:50-  2631.3 50632mSCRRangareddy Dist., Telangana
16.2|--|SSPDSadashivapet Road  07:58-07:58-  2638.1 50632mSCRRangareddy Dist., Telangana
16.3|--|MRFMarpalli  08:15-08:15-  2652.2 50628mSCRRangareddu Dist., Telangana
16.4|--|KOHRKohir Deccan (1)  08:27-08:27-  2661.9 50629mSCRMedak Dist., Telangana
17|--|ZBZahirabad (1)  08:44+1:2208:45+1:221m12675.842634mSCRDist. Medak, Telangana
17.1|--|MTVMatalkunta  09:02-09:02-  2687.7 42600mSCRMedak Dist., Telangana
17.2|--|CHTTChitta  09:11-09:11-  2694.3 42628mSCRBidar Dist.585419, Karnataka
18|--|BIDRBidar (3)•  09:30+13---2707.6-673mSCRBidar ph.no 08482 226404, Karnataka
Scroll to Top
Scroll to Bottom